sensor_id;sensor_type;location;lat;lon;timestamp;pressure;altitude;pressure_sealevel;temperature;humidity
40384;BME280;26097;42.366;23.818;2022-11-15T00:00:33;94702.75;;;2.86;100.00
40384;BME280;26097;42.366;23.818;2022-11-15T00:03:34;94708.94;;;3.06;100.00
40384;BME280;26097;42.366;23.818;2022-11-15T00:06:34;94707.72;;;3.16;100.00
40384;BME280;26097;42.366;23.818;2022-11-15T00:09:34;94705.38;;;3.32;100.00
40384;BME280;26097;42.366;23.818;2022-11-15T00:12:35;94700.56;;;3.47;100.00
40384;BME280;26097;42.366;23.818;2022-11-15T00:15:37;94698.34;;;3.60;100.00
40384;BME280;26097;42.366;23.818;2022-11-15T00:18:38;94695.34;;;3.70;100.00
40384;BME280;26097;42.366;23.818;2022-11-15T00:21:38;94687.09;;;3.83;100.00
40384;BME280;26097;42.366;23.818;2022-11-15T00:24:38;94697.13;;;3.91;100.00
40384;BME280;26097;42.366;23.818;2022-11-15T00:27:39;94689.84;;;4.00;100.00
40384;BME280;26097;42.366;23.818;2022-11-15T00:30:39;94686.56;;;3.97;100.00
40384;BME280;26097;42.366;23.818;2022-11-15T00:33:42;94689.66;;;4.05;100.00
40384;BME280;26097;42.366;23.818;2022-11-15T00:36:43;94684.94;;;3.94;100.00
40384;BME280;26097;42.366;23.818;2022-11-15T00:39:43;94682.41;;;3.93;100.00
40384;BME280;26097;42.366;23.818;2022-11-15T00:42:44;94681.09;;;4.05;100.00
40384;BME280;26097;42.366;23.818;2022-11-15T00:45:44;94682.47;;;4.13;100.00
40384;BME280;26097;42.366;23.818;2022-11-15T00:48:47;94681.31;;;4.21;100.00
40384;BME280;26097;42.366;23.818;2022-11-15T00:51:47;94680.13;;;4.28;100.00
40384;BME280;26097;42.366;23.818;2022-11-15T00:54:48;94677.38;;;4.33;100.00
40384;BME280;26097;42.366;23.818;2022-11-15T00:57:48;94669.44;;;4.37;100.00
40384;BME280;26097;42.366;23.818;2022-11-15T01:00:49;94665.09;;;4.38;100.00
40384;BME280;26097;42.366;23.818;2022-11-15T01:03:49;94663.09;;;4.45;100.00
40384;BME280;26097;42.366;23.818;2022-11-15T01:06:49;94672.53;;;4.46;100.00
40384;BME280;26097;42.366;23.818;2022-11-15T01:09:50;94667.38;;;4.46;100.00
40384;BME280;26097;42.366;23.818;2022-11-15T01:12:50;94671.69;;;4.45;100.00
40384;BME280;26097;42.366;23.818;2022-11-15T01:15:50;94661.25;;;4.48;100.00
40384;BME280;26097;42.366;23.818;2022-11-15T01:18:51;94662.84;;;4.51;100.00
40384;BME280;26097;42.366;23.818;2022-11-15T01:21:51;94665.31;;;4.54;100.00
40384;BME280;26097;42.366;23.818;2022-11-15T01:24:52;94660.25;;;4.51;100.00
40384;BME280;26097;42.366;23.818;2022-11-15T01:27:52;94663.63;;;4.53;100.00
40384;BME280;26097;42.366;23.818;2022-11-15T01:30:52;94660.91;;;4.56;100.00
40384;BME280;26097;42.366;23.818;2022-11-15T01:33:53;94661.69;;;4.58;100.00
40384;BME280;26097;42.366;23.818;2022-11-15T01:36:53;94659.88;;;4.60;100.00
40384;BME280;26097;42.366;23.818;2022-11-15T01:39:53;94664.13;;;4.61;100.00
40384;BME280;26097;42.366;23.818;2022-11-15T01:42:54;94663.34;;;4.59;100.00
40384;BME280;26097;42.366;23.818;2022-11-15T01:49:11;94651.22;;;4.61;100.00
40384;BME280;26097;42.366;23.818;2022-11-15T01:52:14;94653.03;;;4.59;100.00
40384;BME280;26097;42.366;23.818;2022-11-15T01:55:20;94653.03;;;4.59;100.00
40384;BME280;26097;42.366;23.818;2022-11-15T01:58:21;94653.94;;;4.58;100.00
40384;BME280;26097;42.366;23.818;2022-11-15T02:01:24;94651.22;;;4.61;100.00
40384;BME280;26097;42.366;23.818;2022-11-15T02:04:26;94651.22;;;4.61;100.00
40384;BME280;26097;42.366;23.818;2022-11-15T02:07:28;94651.34;;;4.58;100.00
40384;BME280;26097;42.366;23.818;2022-11-15T02:10:29;94650.44;;;4.59;100.00
40384;BME280;26097;42.366;23.818;2022-11-15T02:13:30;94657.34;;;4.58;100.00
40384;BME280;26097;42.366;23.818;2022-11-15T02:23:14;94654.97;;;4.54;100.00
40384;BME280;26097;42.366;23.818;2022-11-15T02:39:48;94629.53;;;4.45;100.00
40384;BME280;26097;42.366;23.818;2022-11-15T02:42:53;94635.56;;;4.45;100.00
40384;BME280;26097;42.366;23.818;2022-11-15T02:46:22;94637.25;;;4.46;100.00
40384;BME280;26097;42.366;23.818;2022-11-15T02:49:50;94640.16;;;4.38;100.00
40384;BME280;26097;42.366;23.818;2022-11-15T02:52:51;94635.03;;;4.37;100.00
40384;BME280;26097;42.366;23.818;2022-11-15T02:55:53;94638.34;;;4.40;100.00
40384;BME280;26097;42.366;23.818;2022-11-15T03:02:08;94638.34;;;4.40;100.00
40384;BME280;26097;42.366;23.818;2022-11-15T03:08:32;94632.22;;;4.43;100.00
40384;BME280;26097;42.366;23.818;2022-11-15T03:11:36;94640.91;;;4.40;100.00
40384;BME280;26097;42.366;23.818;2022-11-15T03:15:22;94635.63;;;4.43;100.00
40384;BME280;26097;42.366;23.818;2022-11-15T03:18:27;94625.34;;;4.42;100.00
40384;BME280;26097;42.366;23.818;2022-11-15T03:21:32;94629.81;;;4.38;100.00
40384;BME280;26097;42.366;23.818;2022-11-15T03:24:36;94637.03;;;4.30;100.00
40384;BME280;26097;42.366;23.818;2022-11-15T03:27:38;94638.41;;;4.18;100.00
40384;BME280;26097;42.366;23.818;2022-11-15T03:30:42;94634.47;;;4.09;100.00
40384;BME280;26097;42.366;23.818;2022-11-15T03:33:44;94632.09;;;4.05;100.00
40384;BME280;26097;42.366;23.818;2022-11-15T03:36:45;94644.09;;;4.06;100.00
40384;BME280;26097;42.366;23.818;2022-11-15T03:39:46;94630.41;;;4.04;100.00
40384;BME280;26097;42.366;23.818;2022-11-15T03:46:07;94628.16;;;3.96;100.00
40384;BME280;26097;42.366;23.818;2022-11-15T03:49:16;94626.25;;;3.99;100.00
40384;BME280;26097;42.366;23.818;2022-11-15T03:52:19;94614.34;;;3.97;100.00
40384;BME280;26097;42.366;23.818;2022-11-15T03:55:21;94615.44;;;3.91;100.00
40384;BME280;26097;42.366;23.818;2022-11-15T03:58:21;94615.56;;;3.88;100.00
40384;BME280;26097;42.366;23.818;2022-11-15T04:01:22;94614.66;;;3.89;100.00
40384;BME280;26097;42.366;23.818;2022-11-15T04:04:22;94608.66;;;3.89;100.00
40384;BME280;26097;42.366;23.818;2022-11-15T04:07:23;94605.94;;;3.92;100.00
40384;BME280;26097;42.366;23.818;2022-11-15T04:10:23;94605.84;;;3.95;100.00
40384;BME280;26097;42.366;23.818;2022-11-15T04:13:24;94605.84;;;3.95;100.00
40384;BME280;26097;42.366;23.818;2022-11-15T04:16:24;94603.13;;;3.98;100.00
40384;BME280;26097;42.366;23.818;2022-11-15T04:19:24;94597.69;;;4.04;100.00
40384;BME280;26097;42.366;23.818;2022-11-15T04:22:43;94591.63;;;4.05;100.00
40384;BME280;26097;42.366;23.818;2022-11-15T04:26:05;94594.09;;;4.08;100.00
40384;BME280;26097;42.366;23.818;2022-11-15T04:29:06;94595.63;;;4.12;100.00
40384;BME280;26097;42.366;23.818;2022-11-15T04:32:24;94597.06;;;4.20;100.00
40384;BME280;26097;42.366;23.818;2022-11-15T04:35:25;94591.00;;;4.21;100.00
40384;BME280;26097;42.366;23.818;2022-11-15T04:38:25;94590.91;;;4.22;100.00
40384;BME280;26097;42.366;23.818;2022-11-15T04:41:26;94587.44;;;4.23;100.00
40384;BME280;26097;42.366;23.818;2022-11-15T04:44:26;94595.88;;;4.27;100.00
40384;BME280;26097;42.366;23.818;2022-11-15T04:47:26;94580.25;;;4.30;100.00
40384;BME280;26097;42.366;23.818;2022-11-15T04:50:28;94585.31;;;4.33;100.00
40384;BME280;26097;42.366;23.818;2022-11-15T04:53:28;94582.78;;;4.32;100.00
40384;BME280;26097;42.366;23.818;2022-11-15T04:56:28;94585.31;;;4.33;100.00
40384;BME280;26097;42.366;23.818;2022-11-15T04:59:29;94575.75;;;4.35;100.00
40384;BME280;26097;42.366;23.818;2022-11-15T05:02:29;94577.34;;;4.38;100.00
40384;BME280;26097;42.366;23.818;2022-11-15T05:05:49;94570.50;;;4.37;100.00
40384;BME280;26097;42.366;23.818;2022-11-15T05:08:50;94567.25;;;4.33;100.00
40384;BME280;26097;42.366;23.818;2022-11-15T05:11:50;94562.91;;;4.34;100.00
40384;BME280;26097;42.366;23.818;2022-11-15T05:14:51;94572.41;;;4.33;100.00
40384;BME280;26097;42.366;23.818;2022-11-15T05:17:57;94571.59;;;4.31;100.00
40384;BME280;26097;42.366;23.818;2022-11-15T05:21:05;94558.72;;;4.31;100.00
40384;BME280;26097;42.366;23.818;2022-11-15T05:24:06;94563.94;;;4.29;100.00
40384;BME280;26097;42.366;23.818;2022-11-15T05:27:06;94569.03;;;4.31;100.00
40384;BME280;26097;42.366;23.818;2022-11-15T05:30:07;94572.59;;;4.28;100.00
40384;BME280;26097;42.366;23.818;2022-11-15T05:33:07;94574.13;;;4.33;100.00
40384;BME280;26097;42.366;23.818;2022-11-15T05:36:31;94573.38;;;4.31;100.00
40384;BME280;26097;42.366;23.818;2022-11-15T05:39:33;94587.94;;;4.32;100.00
40384;BME280;26097;42.366;23.818;2022-11-15T05:42:35;94576.66;;;4.34;100.00
40384;BME280;26097;42.366;23.818;2022-11-15T05:45:36;94576.78;;;4.31;100.00
40384;BME280;26097;42.366;23.818;2022-11-15T05:48:37;94578.59;;;4.29;100.00
40384;BME280;26097;42.366;23.818;2022-11-15T05:51:41;94581.03;;;4.32;100.00
40384;BME280;26097;42.366;23.818;2022-11-15T05:54:44;94587.22;;;4.28;100.00
40384;BME280;26097;42.366;23.818;2022-11-15T05:57:44;94581.25;;;4.27;100.00
40384;BME280;26097;42.366;23.818;2022-11-15T06:00:45;94588.00;;;4.30;100.00
40384;BME280;26097;42.366;23.818;2022-11-15T06:03:45;94589.69;;;4.31;100.00
40384;BME280;26097;42.366;23.818;2022-11-15T06:06:46;94588.78;;;4.32;100.00
40384;BME280;26097;42.366;23.818;2022-11-15T06:09:46;94588.66;;;4.35;100.00
40384;BME280;26097;42.366;23.818;2022-11-15T06:12:47;94590.19;;;4.39;100.00
40384;BME280;26097;42.366;23.818;2022-11-15T06:15:47;94596.28;;;4.38;100.00
40384;BME280;26097;42.366;23.818;2022-11-15T06:18:47;94600.53;;;4.39;100.00
40384;BME280;26097;42.366;23.818;2022-11-15T06:21:48;94591.72;;;4.43;100.00
40384;BME280;26097;42.366;23.818;2022-11-15T06:24:48;94589.63;;;4.52;100.00
40384;BME280;26097;42.366;23.818;2022-11-15T06:27:56;94597.19;;;4.56;100.00
40384;BME280;26097;42.366;23.818;2022-11-15T06:31:03;94597.91;;;4.60;100.00
40384;BME280;26097;42.366;23.818;2022-11-15T06:34:03;94591.69;;;4.64;100.00
40384;BME280;26097;42.366;23.818;2022-11-15T06:37:03;94594.28;;;4.64;100.00
40384;BME280;26097;42.366;23.818;2022-11-15T06:40:05;94600.97;;;4.68;100.00
40384;BME280;26097;42.366;23.818;2022-11-15T06:43:05;94597.47;;;4.69;100.00
40384;BME280;26097;42.366;23.818;2022-11-15T06:46:07;94593.16;;;4.70;100.00
40384;BME280;26097;42.366;23.818;2022-11-15T06:49:07;94592.06;;;4.76;100.00
40384;BME280;26097;42.366;23.818;2022-11-15T06:52:08;94593.75;;;4.77;100.00
40384;BME280;26097;42.366;23.818;2022-11-15T06:55:08;94582.97;;;4.86;100.00
40384;BME280;26097;42.366;23.818;2022-11-15T06:58:09;94583.69;;;4.90;100.00
40384;BME280;26097;42.366;23.818;2022-11-15T07:01:11;94580.03;;;4.94;100.00
40384;BME280;26097;42.366;23.818;2022-11-15T07:04:11;94579.84;;;4.98;100.00
40384;BME280;26097;42.366;23.818;2022-11-15T07:07:12;94576.19;;;5.03;100.00
40384;BME280;26097;42.366;23.818;2022-11-15T07:10:12;94587.16;;;5.08;100.00
40384;BME280;26097;42.366;23.818;2022-11-15T07:13:12;94579.03;;;5.15;100.00
40384;BME280;26097;42.366;23.818;2022-11-15T07:16:13;94578.38;;;5.12;100.00
40384;BME280;26097;42.366;23.818;2022-11-15T07:19:13;94569.47;;;5.18;100.00
40384;BME280;26097;42.366;23.818;2022-11-15T07:22:14;94571.13;;;5.19;100.00
40384;BME280;26097;42.366;23.818;2022-11-15T07:25:14;94567.72;;;5.18;100.00
40384;BME280;26097;42.366;23.818;2022-11-15T07:28:14;94578.06;;;5.18;100.00
40384;BME280;26097;42.366;23.818;2022-11-15T07:31:15;94570.94;;;5.23;100.00
40384;BME280;26097;42.366;23.818;2022-11-15T07:34:15;94574.44;;;5.22;100.00
40384;BME280;26097;42.366;23.818;2022-11-15T07:37:16;94577.72;;;5.26;100.00
40384;BME280;26097;42.366;23.818;2022-11-15T07:40:17;94575.50;;;5.18;100.00
40384;BME280;26097;42.366;23.818;2022-11-15T07:43:17;94572.06;;;5.18;100.00
40384;BME280;26097;42.366;23.818;2022-11-15T07:46:17;94572.53;;;5.26;100.00
40384;BME280;26097;42.366;23.818;2022-11-15T07:49:18;94572.47;;;5.27;100.00
40384;BME280;26097;42.366;23.818;2022-11-15T07:52:18;94571.47;;;5.30;100.00
40384;BME280;26097;42.366;23.818;2022-11-15T07:55:18;94579.28;;;5.28;100.00
40384;BME280;26097;42.366;23.818;2022-11-15T07:58:19;94578.78;;;5.22;100.00
40384;BME280;26097;42.366;23.818;2022-11-15T08:01:19;94581.22;;;5.25;100.00
40384;BME280;26097;42.366;23.818;2022-11-15T08:04:20;94583.13;;;5.39;100.00
40384;BME280;26097;42.366;23.818;2022-11-15T08:07:20;94579.88;;;5.53;100.00
40384;BME280;26097;42.366;23.818;2022-11-15T08:10:20;94572.66;;;5.60;100.00
40384;BME280;26097;42.366;23.818;2022-11-15T08:13:21;94574.88;;;5.50;100.00
40384;BME280;26097;42.366;23.818;2022-11-15T08:16:21;94580.09;;;5.48;100.00
40384;BME280;26097;42.366;23.818;2022-11-15T08:19:22;94577.81;;;5.42;100.00
40384;BME280;26097;42.366;23.818;2022-11-15T08:22:22;94570.59;;;5.49;100.00
40384;BME280;26097;42.366;23.818;2022-11-15T08:25:23;94571.00;;;5.58;100.00
40384;BME280;26097;42.366;23.818;2022-11-15T08:28:26;94564.16;;;5.57;100.00
40384;BME280;26097;42.366;23.818;2022-11-15T08:31:26;94558.28;;;5.71;100.00
40384;BME280;26097;42.366;23.818;2022-11-15T08:34:27;94561.94;;;5.67;100.00
40384;BME280;26097;42.366;23.818;2022-11-15T08:37:27;94559.16;;;5.72;100.00
40384;BME280;26097;42.366;23.818;2022-11-15T08:40:27;94555.00;;;5.68;100.00
40384;BME280;26097;42.366;23.818;2022-11-15T08:43:28;94558.06;;;5.76;100.00
40384;BME280;26097;42.366;23.818;2022-11-15T08:46:28;94562.66;;;5.71;100.00
40384;BME280;26097;42.366;23.818;2022-11-15T08:49:29;94559.59;;;5.80;100.00
40384;BME280;26097;42.366;23.818;2022-11-15T08:52:29;94554.72;;;5.74;100.00
40384;BME280;26097;42.366;23.818;2022-11-15T08:55:29;94545.69;;;5.83;100.00
40384;BME280;26097;42.366;23.818;2022-11-15T08:58:30;94551.69;;;6.01;100.00
40384;BME280;26097;42.366;23.818;2022-11-15T09:01:30;94544.06;;;5.98;100.00
40384;BME280;26097;42.366;23.818;2022-11-15T09:04:31;94547.72;;;5.94;100.00
40384;BME280;26097;42.366;23.818;2022-11-15T09:07:31;94544.97;;;5.97;100.00
40384;BME280;26097;42.366;23.818;2022-11-15T09:10:32;94548.28;;;5.83;100.00
40384;BME280;26097;42.366;23.818;2022-11-15T09:13:32;94535.06;;;5.88;100.00
40384;BME280;26097;42.366;23.818;2022-11-15T09:16:33;94535.09;;;6.05;100.00
40384;BME280;26097;42.366;23.818;2022-11-15T09:19:34;94532.59;;;6.04;100.00
40384;BME280;26097;42.366;23.818;2022-11-15T09:22:35;94531.00;;;6.01;100.00
40384;BME280;26097;42.366;23.818;2022-11-15T09:25:36;94522.91;;;6.07;100.00
40384;BME280;26097;42.366;23.818;2022-11-15T09:28:36;94519.25;;;5.94;100.00
40384;BME280;26097;42.366;23.818;2022-11-15T09:31:38;94517.44;;;6.13;100.00
40384;BME280;26097;42.366;23.818;2022-11-15T09:34:38;94508.94;;;6.11;100.00
40384;BME280;26097;42.366;23.818;2022-11-15T09:37:38;94507.69;;;6.19;100.00
40384;BME280;26097;42.366;23.818;2022-11-15T09:40:39;94507.34;;;6.25;100.00
40384;BME280;26097;42.366;23.818;2022-11-15T09:44:06;94505.22;;;6.33;100.00
40384;BME280;26097;42.366;23.818;2022-11-15T09:50:48;94498.13;;;6.53;100.00
40384;BME280;26097;42.366;23.818;2022-11-15T09:54:04;94488.69;;;6.84;100.00
40384;BME280;26097;42.366;23.818;2022-11-15T10:00:43;94476.06;;;7.10;100.00
40384;BME280;26097;42.366;23.818;2022-11-15T10:03:44;94473.50;;;7.24;100.00
40384;BME280;26097;42.366;23.818;2022-11-15T10:06:58;94468.84;;;7.15;100.00
40384;BME280;26097;42.366;23.818;2022-11-15T10:13:36;94460.38;;;6.81;100.00
40384;BME280;26097;42.366;23.818;2022-11-15T10:22:56;94436.03;;;6.83;100.00
40384;BME280;26097;42.366;23.818;2022-11-15T10:25:59;94434.53;;;6.95;100.00
40384;BME280;26097;42.366;23.818;2022-11-15T10:29:00;94429.34;;;6.95;100.00
40384;BME280;26097;42.366;23.818;2022-11-15T10:32:00;94420.28;;;7.03;100.00
40384;BME280;26097;42.366;23.818;2022-11-15T10:35:16;94419.97;;;7.09;100.00
40384;BME280;26097;42.366;23.818;2022-11-15T10:38:17;94407.38;;;7.17;100.00
40384;BME280;26097;42.366;23.818;2022-11-15T10:41:19;94404.44;;;7.23;100.00
40384;BME280;26097;42.366;23.818;2022-11-15T10:44:22;94407.81;;;7.40;100.00
40384;BME280;26097;42.366;23.818;2022-11-15T10:47:28;94400.03;;;7.40;100.00
40384;BME280;26097;42.366;23.818;2022-11-15T10:50:32;94397.47;;;7.69;100.00
40384;BME280;26097;42.366;23.818;2022-11-15T10:53:43;94388.75;;;7.84;100.00
40384;BME280;26097;42.366;23.818;2022-11-15T10:56:50;94380.63;;;7.91;100.00
40384;BME280;26097;42.366;23.818;2022-11-15T10:59:54;94383.75;;;7.96;100.00
40384;BME280;26097;42.366;23.818;2022-11-15T11:12:27;94358.00;;;8.35;100.00
40384;BME280;26097;42.366;23.818;2022-11-15T11:15:29;94351.22;;;8.47;100.00
40384;BME280;26097;42.366;23.818;2022-11-15T11:28:45;94330.34;;;8.76;100.00
40384;BME280;26097;42.366;23.818;2022-11-15T11:32:01;94324.97;;;8.92;100.00
40384;BME280;26097;42.366;23.818;2022-11-15T11:45:44;94303.38;;;9.43;100.00
40384;BME280;26097;42.366;23.818;2022-11-15T11:48:57;94293.00;;;9.56;100.00
40384;BME280;26097;42.366;23.818;2022-11-15T11:58:41;94275.84;;;9.91;100.00
40384;BME280;26097;42.366;23.818;2022-11-15T12:01:44;94281.25;;;10.00;100.00
40384;BME280;26097;42.366;23.818;2022-11-15T12:04:49;94270.38;;;10.07;100.00
40384;BME280;26097;42.366;23.818;2022-11-15T12:07:53;94261.94;;;10.16;100.00
40384;BME280;26097;42.366;23.818;2022-11-15T12:11:17;94267.63;;;10.21;100.00
40384;BME280;26097;42.366;23.818;2022-11-15T12:14:34;94262.53;;;10.20;100.00
40384;BME280;26097;42.366;23.818;2022-11-15T12:17:38;94251.94;;;10.34;100.00
40384;BME280;26097;42.366;23.818;2022-11-15T12:20:43;94240.31;;;10.27;100.00
40384;BME280;26097;42.366;23.818;2022-11-15T12:23:54;94239.78;;;10.22;100.00
40384;BME280;26097;42.366;23.818;2022-11-15T12:27:01;94239.31;;;10.17;100.00
40384;BME280;26097;42.366;23.818;2022-11-15T12:30:10;94237.19;;;10.22;100.00
40384;BME280;26097;42.366;23.818;2022-11-15T12:36:38;94234.56;;;10.35;100.00
40384;BME280;26097;42.366;23.818;2022-11-15T12:52:29;94223.59;;;10.42;100.00
40384;BME280;26097;42.366;23.818;2022-11-15T12:55:32;94217.44;;;10.43;100.00
40384;BME280;26097;42.366;23.818;2022-11-15T13:01:57;94206.09;;;10.56;100.00
40384;BME280;26097;42.366;23.818;2022-11-15T13:08:53;94213.22;;;10.54;100.00
40384;BME280;26097;42.366;23.818;2022-11-15T13:11:55;94203.50;;;10.56;100.00
40384;BME280;26097;42.366;23.818;2022-11-15T13:15:00;94200.47;;;10.62;100.00
40384;BME280;26097;42.366;23.818;2022-11-15T13:18:33;94204.22;;;10.58;100.00
40384;BME280;26097;42.366;23.818;2022-11-15T13:21:34;94198.91;;;10.60;100.00
40384;BME280;26097;42.366;23.818;2022-11-15T13:28:27;94189.44;;;10.70;100.00
40384;BME280;26097;42.366;23.818;2022-11-15T13:34:37;94193.31;;;10.53;100.00
40384;BME280;26097;42.366;23.818;2022-11-15T13:37:38;94191.25;;;10.45;100.00
40384;BME280;26097;42.366;23.818;2022-11-15T13:40:40;94186.66;;;10.49;100.00
40384;BME280;26097;42.366;23.818;2022-11-15T13:43:40;94182.63;;;10.45;100.00
40384;BME280;26097;42.366;23.818;2022-11-15T13:46:41;94190.44;;;10.45;100.00
40384;BME280;26097;42.366;23.818;2022-11-15T13:49:42;94190.66;;;10.41;100.00
40384;BME280;26097;42.366;23.818;2022-11-15T13:52:45;94182.44;;;10.35;100.00
40384;BME280;26097;42.366;23.818;2022-11-15T13:55:46;94181.13;;;10.29;100.00
40384;BME280;26097;42.366;23.818;2022-11-15T13:58:46;94176.94;;;10.26;100.00
40384;BME280;26097;42.366;23.818;2022-11-15T14:01:47;94177.41;;;10.20;100.00
40384;BME280;26097;42.366;23.818;2022-11-15T14:04:55;94170.78;;;10.16;100.00
40384;BME280;26097;42.366;23.818;2022-11-15T14:08:02;94175.81;;;10.06;100.00
40384;BME280;26097;42.366;23.818;2022-11-15T14:14:13;94175.91;;;9.80;100.00
40384;BME280;26097;42.366;23.818;2022-11-15T14:17:41;94167.44;;;9.65;100.00
40384;BME280;26097;42.366;23.818;2022-11-15T14:20:42;94171.00;;;9.51;100.00
40384;BME280;26097;42.366;23.818;2022-11-15T14:23:43;94164.22;;;9.24;100.00
40384;BME280;26097;42.366;23.818;2022-11-15T14:26:44;94168.69;;;9.09;100.00
40384;BME280;26097;42.366;23.818;2022-11-15T14:29:46;94175.34;;;9.00;100.00
40384;BME280;26097;42.366;23.818;2022-11-15T14:32:49;94175.66;;;8.83;100.00
40384;BME280;26097;42.366;23.818;2022-11-15T14:35:50;94173.69;;;8.61;100.00
40384;BME280;26097;42.366;23.818;2022-11-15T14:38:51;94169.56;;;8.43;100.00
40384;BME280;26097;42.366;23.818;2022-11-15T14:41:52;94177.53;;;8.27;100.00
40384;BME280;26097;42.366;23.818;2022-11-15T14:44:52;94178.66;;;8.10;100.00
40384;BME280;26097;42.366;23.818;2022-11-15T14:47:53;94177.78;;;7.97;100.00
40384;BME280;26097;42.366;23.818;2022-11-15T14:50:53;94170.22;;;7.79;100.00
40384;BME280;26097;42.366;23.818;2022-11-15T14:53:53;94173.06;;;7.62;100.00
40384;BME280;26097;42.366;23.818;2022-11-15T14:56:55;94170.06;;;7.40;100.00
40384;BME280;26097;42.366;23.818;2022-11-15T14:59:55;94172.88;;;7.23;100.00
40384;BME280;26097;42.366;23.818;2022-11-15T15:02:57;94174.81;;;6.90;100.00
40384;BME280;26097;42.366;23.818;2022-11-15T15:05:57;94179.72;;;6.66;100.00
40384;BME280;26097;42.366;23.818;2022-11-15T15:08:58;94186.97;;;6.45;100.00
40384;BME280;26097;42.366;23.818;2022-11-15T15:11:58;94190.63;;;6.26;100.00
40384;BME280;26097;42.366;23.818;2022-11-15T15:14:59;94193.50;;;6.05;100.00
40384;BME280;26097;42.366;23.818;2022-11-15T15:17:59;94194.34;;;5.90;100.00
40384;BME280;26097;42.366;23.818;2022-11-15T15:21:00;94192.78;;;5.71;100.00
40384;BME280;26097;42.366;23.818;2022-11-15T15:24:03;94191.97;;;5.54;100.00
40384;BME280;26097;42.366;23.818;2022-11-15T15:27:03;94191.88;;;5.40;100.00
40384;BME280;26097;42.366;23.818;2022-11-15T15:30:04;94190.34;;;5.20;100.00
40384;BME280;26097;42.366;23.818;2022-11-15T15:33:04;94175.41;;;5.09;100.00
40384;BME280;26097;42.366;23.818;2022-11-15T15:36:13;94185.50;;;4.97;100.00
40384;BME280;26097;42.366;23.818;2022-11-15T15:39:14;94184.44;;;4.84;100.00
40384;BME280;26097;42.366;23.818;2022-11-15T15:42:15;94191.47;;;4.64;100.00
40384;BME280;26097;42.366;23.818;2022-11-15T15:45:17;94190.28;;;4.54;100.00
40384;BME280;26097;42.366;23.818;2022-11-15T15:48:18;94193.69;;;4.37;100.00
40384;BME280;26097;42.366;23.818;2022-11-15T15:51:18;94196.66;;;4.29;100.00
40384;BME280;26097;42.366;23.818;2022-11-15T15:54:19;94192.19;;;4.15;100.00
40384;BME280;26097;42.366;23.818;2022-11-15T15:57:19;94189.22;;;4.05;100.00
40384;BME280;26097;42.366;23.818;2022-11-15T16:00:20;94193.19;;;3.95;100.00
40384;BME280;26097;42.366;23.818;2022-11-15T16:03:23;94196.94;;;3.88;100.00
40384;BME280;26097;42.366;23.818;2022-11-15T16:06:40;94198.50;;;3.72;100.00
40384;BME280;26097;42.366;23.818;2022-11-15T16:09:44;94197.00;;;3.68;100.00
40384;BME280;26097;42.366;23.818;2022-11-15T16:13:03;94198.13;;;3.63;100.00
40384;BME280;26097;42.366;23.818;2022-11-15T16:16:07;94189.28;;;3.49;100.00
40384;BME280;26097;42.366;23.818;2022-11-15T16:19:10;94187.91;;;3.42;100.00
40384;BME280;26097;42.366;23.818;2022-11-15T16:22:11;94185.63;;;3.36;100.00
40384;BME280;26097;42.366;23.818;2022-11-15T16:25:11;94178.91;;;3.32;100.00
40384;BME280;26097;42.366;23.818;2022-11-15T16:28:23;94182.97;;;3.18;100.00
40384;BME280;26097;42.366;23.818;2022-11-15T16:31:24;94174.34;;;3.19;100.00
40384;BME280;26097;42.366;23.818;2022-11-15T16:34:24;94190.06;;;3.13;100.00
40384;BME280;26097;42.366;23.818;2022-11-15T16:37:24;94193.69;;;3.09;100.00
40384;BME280;26097;42.366;23.818;2022-11-15T16:40:31;94188.94;;;2.99;100.00
40384;BME280;26097;42.366;23.818;2022-11-15T16:43:32;94188.31;;;2.94;100.00
40384;BME280;26097;42.366;23.818;2022-11-15T16:46:32;94198.69;;;2.93;100.00
40384;BME280;26097;42.366;23.818;2022-11-15T16:49:32;94190.25;;;2.89;100.00
40384;BME280;26097;42.366;23.818;2022-11-15T16:52:33;94182.81;;;2.83;100.00
40384;BME280;26097;42.366;23.818;2022-11-15T16:55:33;94195.97;;;2.77;100.00
40384;BME280;26097;42.366;23.818;2022-11-15T16:58:36;94193.00;;;2.65;100.00
40384;BME280;26097;42.366;23.818;2022-11-15T17:01:37;94188.91;;;2.61;100.00
40384;BME280;26097;42.366;23.818;2022-11-15T17:04:45;94185.28;;;2.65;100.00
40384;BME280;26097;42.366;23.818;2022-11-15T17:07:48;94179.66;;;2.57;100.00
40384;BME280;26097;42.366;23.818;2022-11-15T17:10:49;94184.28;;;2.49;100.00
40384;BME280;26097;42.366;23.818;2022-11-15T17:13:50;94188.69;;;2.45;100.00
40384;BME280;26097;42.366;23.818;2022-11-15T17:16:50;94181.06;;;2.43;100.00
40384;BME280;26097;42.366;23.818;2022-11-15T17:19:51;94181.84;;;2.46;100.00
40384;BME280;26097;42.366;23.818;2022-11-15T17:22:52;94170.63;;;2.47;100.00
40384;BME280;26097;42.366;23.818;2022-11-15T17:26:03;94173.34;;;2.43;100.00
40384;BME280;26097;42.366;23.818;2022-11-15T17:29:04;94169.28;;;2.38;100.00
40384;BME280;26097;42.366;23.818;2022-11-15T17:32:07;94167.69;;;2.35;100.00
40384;BME280;26097;42.366;23.818;2022-11-15T17:35:09;94170.47;;;2.31;100.00
40384;BME280;26097;42.366;23.818;2022-11-15T17:38:11;94160.31;;;2.27;100.00
40384;BME280;26097;42.366;23.818;2022-11-15T17:41:13;94158.66;;;2.26;100.00
40384;BME280;26097;42.366;23.818;2022-11-15T17:44:14;94150.84;;;2.28;100.00
40384;BME280;26097;42.366;23.818;2022-11-15T17:47:14;94151.13;;;2.22;100.00
40384;BME280;26097;42.366;23.818;2022-11-15T17:50:15;94149.56;;;2.18;100.00
40384;BME280;26097;42.366;23.818;2022-11-15T17:53:16;94148.72;;;2.17;100.00